createdAt,value
2017-10-25T00:00:20.089Z,98312.84
2017-10-25T00:00:51.730Z,98316.69
2017-10-25T00:01:23.375Z,98317.09
2017-10-25T00:01:55.030Z,98313.27
2017-10-25T00:02:26.682Z,98320.08
2017-10-25T00:02:58.329Z,98315.82
2017-10-25T00:03:30.114Z,98324.77
2017-10-25T00:04:02.063Z,98319.23
2017-10-25T00:04:33.762Z,98318.39
2017-10-25T00:05:05.405Z,98314.54
2017-10-25T00:05:37.053Z,98314.55
2017-10-25T00:06:08.702Z,98308.63
2017-10-25T00:06:40.579Z,98313.27
2017-10-25T00:07:12.422Z,98312.84
2017-10-25T00:07:44.170Z,98310.33
2017-10-25T00:08:15.822Z,98303.51
2017-10-25T00:08:47.468Z,98304.36
2017-10-25T00:09:19.113Z,98300.53
2017-10-25T00:09:51.045Z,98291.16
2017-10-25T00:10:22.937Z,98299.25
2017-10-25T00:10:54.590Z,98293.71
2017-10-25T00:11:26.237Z,98294.95
2017-10-25T00:11:58.181Z,98276.84
2017-10-25T00:12:29.829Z,98292.87
2017-10-25T00:13:01.511Z,98288.61
2017-10-25T00:13:33.162Z,98292.88
2017-10-25T00:14:04.815Z,98292.49
2017-10-25T00:14:36.465Z,98291.22
2017-10-25T00:15:08.114Z,98297.62
2017-10-25T00:15:39.757Z,98296.80
2017-10-25T00:16:11.406Z,98292.13
2017-10-25T00:16:43.049Z,98296.01
2017-10-25T00:17:14.951Z,98296.48
2017-10-25T00:17:46.790Z,98296.45
2017-10-25T00:18:18.544Z,98292.66
2017-10-25T00:18:50.193Z,98299.05
2017-10-25T00:19:21.843Z,98298.67
2017-10-25T00:19:53.489Z,98296.55
2017-10-25T00:20:25.382Z,98296.17
2017-10-25T00:20:57.061Z,98294.42
2017-10-25T00:21:28.709Z,98286.75
2017-10-25T00:22:00.357Z,98291.87
2017-10-25T00:22:32.252Z,98289.35
2017-10-25T00:23:03.894Z,98285.95
2017-10-25T00:23:35.577Z,98293.61
2017-10-25T00:24:07.372Z,98291.06
2017-10-25T00:24:39.016Z,98289.37
2017-10-25T00:25:10.661Z,98288.51
2017-10-25T00:25:42.453Z,98293.20
2017-10-25T00:26:14.401Z,98286.85
2017-10-25T00:26:46.350Z,98290.27
2017-10-25T00:27:18.300Z,98291.97
2017-10-25T00:27:49.949Z,98289.84
2017-10-25T00:28:21.593Z,98286.05
2017-10-25T00:28:53.245Z,98288.56
2017-10-25T00:29:24.889Z,98287.72
2017-10-25T00:29:56.573Z,98288.19
2017-10-25T00:30:28.280Z,98283.51
2017-10-25T00:30:59.929Z,98283.08
2017-10-25T00:31:31.577Z,98287.34
2017-10-25T00:32:03.226Z,98291.59
2017-10-25T00:32:34.878Z,98289.03
2017-10-25T00:33:06.525Z,98286.91
2017-10-25T00:33:38.309Z,98289.89
2017-10-25T00:34:09.958Z,98289.03
2017-10-25T00:34:41.621Z,98286.48
2017-10-25T00:35:13.268Z,98291.21
2017-10-25T00:35:45.186Z,98282.27
2017-10-25T00:36:16.837Z,98286.11
2017-10-25T00:36:48.481Z,98285.69
2017-10-25T00:37:20.129Z,98283.98
2017-10-25T00:37:51.773Z,98285.73
2017-10-25T00:38:23.422Z,98281.48
2017-10-25T00:38:55.235Z,98281.09
2017-10-25T00:39:26.917Z,98283.23
2017-10-25T00:39:58.624Z,98281.11
2017-10-25T00:40:30.465Z,98279.02
2017-10-25T00:41:02.221Z,98277.74
2017-10-25T00:41:33.869Z,98276.47
2017-10-25T00:42:05.518Z,98273.87
2017-10-25T00:42:37.451Z,98276.47
2017-10-25T00:43:09.404Z,98276.89
2017-10-25T00:43:41.054Z,98280.73
2017-10-25T00:44:12.697Z,98281.20
2017-10-25T00:44:44.385Z,98280.31
2017-10-25T00:45:16.275Z,98277.80
2017-10-25T00:45:47.965Z,98281.63
2017-10-25T00:46:19.613Z,98278.65
2017-10-25T00:46:51.258Z,98284.20
2017-10-25T00:47:22.901Z,98280.78
2017-10-25T00:47:54.546Z,98284.19
2017-10-25T00:48:26.434Z,98281.21
2017-10-25T00:48:58.122Z,98284.23
2017-10-25T00:49:29.772Z,98287.64
2017-10-25T00:50:01.667Z,98281.26
2017-10-25T00:50:33.544Z,98285.95
2017-10-25T00:51:05.193Z,98282.54
2017-10-25T00:51:36.837Z,98287.27
2017-10-25T00:52:08.539Z,98280.03
2017-10-25T00:52:40.495Z,98283.86
2017-10-25T00:53:12.439Z,98278.33
2017-10-25T00:53:44.389Z,98275.77
2017-10-25T00:54:16.037Z,98280.03
2017-10-25T00:54:47.682Z,98275.78
2017-10-25T00:55:19.621Z,98275.78
2017-10-25T00:55:51.570Z,98286.42
2017-10-25T00:56:23.217Z,98278.34
2017-10-25T00:56:54.870Z,98275.36
2017-10-25T00:57:26.512Z,98274.55
2017-10-25T00:57:58.153Z,98276.25
2017-10-25T00:58:29.825Z,98278.80
2017-10-25T00:59:01.474Z,98277.09
2017-10-25T00:59:33.121Z,98273.27
2017-10-25T01:00:04.770Z,98279.23
2017-10-25T01:00:36.480Z,98271.16
2017-10-25T01:01:08.129Z,98271.58
2017-10-25T01:01:39.777Z,98271.57
2017-10-25T01:02:11.613Z,98273.27
2017-10-25T01:02:43.257Z,98267.75
2017-10-25T01:03:14.909Z,98258.38
2017-10-25T01:03:46.561Z,98266.47
2017-10-25T01:04:18.214Z,98263.48
2017-10-25T01:04:50.054Z,98270.72
2017-10-25T01:05:21.697Z,98261.36
2017-10-25T01:05:53.398Z,98260.94
2017-10-25T01:06:25.041Z,98260.94
2017-10-25T01:06:56.690Z,98268.59
2017-10-25T01:07:28.342Z,98274.12
2017-10-25T01:07:59.985Z,98272.84
2017-10-25T01:08:31.629Z,98277.11
2017-10-25T01:09:03.277Z,98282.65
2017-10-25T01:09:34.926Z,98280.51
2017-10-25T01:10:06.574Z,98278.37
2017-10-25T01:10:38.218Z,98286.05
2017-10-25T01:11:10.086Z,98281.36
2017-10-25T01:11:41.752Z,98277.53
2017-10-25T01:12:13.408Z,98286.42
2017-10-25T01:12:45.054Z,98282.59
2017-10-25T01:13:16.701Z,98282.97
2017-10-25T01:13:48.385Z,98274.45
2017-10-25T01:14:20.265Z,98274.02
2017-10-25T01:14:52.149Z,98276.58
2017-10-25T01:15:23.794Z,98269.76
2017-10-25T01:15:55.448Z,98274.86
2017-10-25T01:16:27.101Z,98271.41
2017-10-25T01:16:58.783Z,98276.95
2017-10-25T01:17:30.434Z,98286.75
2017-10-25T01:18:02.374Z,98282.87
2017-10-25T01:18:34.226Z,98280.30
2017-10-25T01:19:05.890Z,98276.86
2017-10-25T01:19:37.537Z,98278.55
2017-10-25T01:20:09.182Z,98278.92
2017-10-25T01:20:40.825Z,98277.22
2017-10-25T01:21:12.466Z,98275.94
2017-10-25T01:21:44.109Z,98282.28
2017-10-25T01:22:15.749Z,98280.14
2017-10-25T01:22:47.659Z,98277.12
2017-10-25T01:23:19.341Z,98270.72
2017-10-25T01:23:50.989Z,98274.52
2017-10-25T01:24:22.633Z,98280.46
2017-10-25T01:24:54.277Z,98275.31
2017-10-25T01:25:25.921Z,98272.75
2017-10-25T01:25:57.573Z,98275.73
2017-10-25T01:26:29.221Z,98273.17
2017-10-25T01:27:00.900Z,98270.18
2017-10-25T01:27:32.549Z,98264.59
2017-10-25T01:28:04.200Z,98266.30
2017-10-25T01:28:35.962Z,98272.63
2017-10-25T01:29:07.610Z,98267.95
2017-10-25T01:29:39.261Z,98271.30
2017-10-25T01:30:10.910Z,98267.89
2017-10-25T01:30:42.553Z,98264.91
2017-10-25T01:31:14.201Z,98264.05
2017-10-25T01:31:45.985Z,98256.77
2017-10-25T01:32:17.677Z,98269.97
2017-10-25T01:32:49.334Z,98269.96
2017-10-25T01:33:21.218Z,98264.85
2017-10-25T01:33:53.167Z,98269.06
2017-10-25T01:34:25.117Z,98266.13
2017-10-25T01:34:56.769Z,98267.04
2017-10-25T01:35:28.614Z,98263.63
2017-10-25T01:36:00.265Z,98262.35
2017-10-25T01:36:31.906Z,98265.33
2017-10-25T01:37:03.550Z,98268.74
2017-10-25T01:37:35.274Z,98271.72
2017-10-25T01:38:07.156Z,98277.21
2017-10-25T01:38:38.867Z,98271.67
2017-10-25T01:39:10.704Z,98269.13
2017-10-25T01:39:42.457Z,98266.57
2017-10-25T01:40:14.200Z,98269.16
2017-10-25T01:40:46.047Z,98267.04
2017-10-25T01:41:17.872Z,98271.30
2017-10-25T01:41:49.639Z,98270.07
2017-10-25T01:42:21.290Z,98267.11
2017-10-25T01:42:52.977Z,98263.70
2017-10-25T01:43:24.625Z,98267.52
2017-10-25T01:43:56.274Z,98271.34
2017-10-25T01:44:28.155Z,98266.62
2017-10-25T01:45:00.108Z,98266.25
2017-10-25T01:45:31.945Z,98270.94
2017-10-25T01:46:03.695Z,98272.65
2017-10-25T01:46:35.394Z,98265.45
2017-10-25T01:47:07.042Z,98262.05
2017-10-25T01:47:38.927Z,98262.91
2017-10-25T01:48:10.777Z,98263.75
2017-10-25T01:48:42.389Z,98263.37
2017-10-25T01:49:14.161Z,98257.46
2017-10-25T01:49:45.810Z,98260.02
2017-10-25T01:50:17.454Z,98251.89
2017-10-25T01:50:49.097Z,98253.16
2017-10-25T01:51:20.742Z,98247.67
2017-10-25T01:51:52.426Z,98249.80
2017-10-25T01:52:24.078Z,98243.84
2017-10-25T01:52:55.961Z,98251.94
2017-10-25T01:53:27.786Z,98252.41
2017-10-25T01:53:59.555Z,98248.58
2017-10-25T01:54:31.504Z,98256.67
2017-10-25T01:55:03.154Z,98255.44
2017-10-25T01:55:34.802Z,98253.73
2017-10-25T01:56:06.449Z,98260.98
2017-10-25T01:56:38.139Z,98261.83
2017-10-25T01:57:10.020Z,98263.13
2017-10-25T01:57:41.669Z,98254.22
2017-10-25T01:58:13.314Z,98251.71
2017-10-25T01:58:44.958Z,98261.52
2017-10-25T01:59:16.601Z,98262.38
2017-10-25T01:59:48.284Z,98262.84
2017-10-25T02:00:20.178Z,98260.28
2017-10-25T02:00:52.127Z,98259.01
2017-10-25T02:01:24.078Z,98260.34
2017-10-25T02:01:55.726Z,98253.53
2017-10-25T02:02:27.369Z,98256.50
2017-10-25T02:02:59.013Z,98255.62
2017-10-25T02:03:30.662Z,98254.75
2017-10-25T02:04:02.309Z,98253.05
2017-10-25T02:04:34.180Z,98253.06
2017-10-25T02:05:05.830Z,98251.40
2017-10-25T02:05:37.518Z,98254.38
2017-10-25T02:06:09.399Z,98249.70
2017-10-25T02:06:41.041Z,98249.27
2017-10-25T02:07:12.684Z,98249.27
2017-10-25T02:07:44.590Z,98244.16
2017-10-25T02:08:16.343Z,98242.45
2017-10-25T02:08:47.997Z,98245.44
2017-10-25T02:09:19.646Z,98250.13
2017-10-25T02:09:51.289Z,98245.02
2017-10-25T02:10:22.938Z,98247.14
2017-10-25T02:10:54.583Z,98245.45
2017-10-25T02:11:26.226Z,98245.44
2017-10-25T02:11:57.874Z,98246.29
2017-10-25T02:12:29.527Z,98243.36
2017-10-25T02:13:01.405Z,98238.20
2017-10-25T02:13:33.070Z,98243.73
2017-10-25T02:14:04.721Z,98233.09
2017-10-25T02:14:36.373Z,98236.12
2017-10-25T02:15:08.013Z,98231.87
2017-10-25T02:15:39.899Z,98234.43
2017-10-25T02:16:11.558Z,98232.73
2017-10-25T02:16:43.227Z,98233.61
2017-10-25T02:17:14.885Z,98234.47
2017-10-25T02:17:46.573Z,98233.20
2017-10-25T02:18:18.226Z,98233.20
2017-10-25T02:18:50.102Z,98236.19
2017-10-25T02:19:21.802Z,98231.92
2017-10-25T02:19:53.449Z,98230.27
2017-10-25T02:20:25.334Z,98227.71
2017-10-25T02:20:57.283Z,98230.27
2017-10-25T02:21:29.233Z,98231.97
2017-10-25T02:22:00.886Z,98233.25
2017-10-25T02:22:32.535Z,98221.33
2017-10-25T02:23:04.183Z,98229.42
2017-10-25T02:23:35.829Z,98225.59
2017-10-25T02:24:07.473Z,98226.88
2017-10-25T02:24:39.296Z,98229.89
2017-10-25T02:25:10.945Z,98227.33
2017-10-25T02:25:42.593Z,98222.23
2017-10-25T02:26:14.317Z,98228.20
2017-10-25T02:26:46.266Z,98225.20
2017-10-25T02:27:18.162Z,98217.11
2017-10-25T02:27:49.809Z,98220.05
2017-10-25T02:28:21.454Z,98223.03
2017-10-25T02:28:53.140Z,98217.06
2017-10-25T02:29:24.793Z,98223.03
2017-10-25T02:29:56.482Z,98215.38
2017-10-25T02:30:28.129Z,98223.50
2017-10-25T02:31:00.020Z,98220.06
2017-10-25T02:31:31.669Z,98219.67
2017-10-25T02:32:03.322Z,98223.93
2017-10-25T02:32:34.970Z,98220.95
2017-10-25T02:33:06.618Z,98221.38
2017-10-25T02:33:38.501Z,98217.97
2017-10-25T02:34:10.175Z,98219.20
2017-10-25T02:34:41.825Z,98223.08
2017-10-25T02:35:13.513Z,98227.77
2017-10-25T02:35:45.162Z,98219.16
2017-10-25T02:36:17.050Z,98218.63
2017-10-25T02:36:48.701Z,98216.73
2017-10-25T02:37:20.346Z,98216.70
2017-10-25T02:37:51.994Z,98221.86
2017-10-25T02:38:23.639Z,98221.97
2017-10-25T02:38:55.456Z,98216.97
2017-10-25T02:39:27.210Z,98212.82
2017-10-25T02:39:58.857Z,98219.78
2017-10-25T02:40:30.502Z,98216.45
2017-10-25T02:41:02.154Z,98221.23
2017-10-25T02:41:33.814Z,98225.16
2017-10-25T02:42:05.473Z,98216.72
2017-10-25T02:42:37.367Z,98220.21
2017-10-25T02:43:09.018Z,98210.47
2017-10-25T02:43:40.661Z,98222.44
2017-10-25T02:44:12.354Z,98219.09
2017-10-25T02:44:44.246Z,98219.56
2017-10-25T02:45:15.894Z,98220.84
2017-10-25T02:45:47.541Z,98222.50
2017-10-25T02:46:19.187Z,98226.27
2017-10-25T02:46:50.841Z,98225.75
2017-10-25T02:47:22.490Z,98221.86
2017-10-25T02:47:54.138Z,98229.00
2017-10-25T02:48:25.785Z,98225.08
2017-10-25T02:48:57.576Z,98229.28
2017-10-25T02:49:29.278Z,98227.53
2017-10-25T02:50:01.166Z,98227.94
2017-10-25T02:50:32.920Z,98235.13
2017-10-25T02:51:04.863Z,98224.48
2017-10-25T02:51:36.741Z,98224.44
2017-10-25T02:52:08.397Z,98226.59
2017-10-25T02:52:40.061Z,98219.30
2017-10-25T02:53:11.734Z,98220.00
2017-10-25T02:53:43.610Z,98213.61
2017-10-25T02:54:15.258Z,98213.19
2017-10-25T02:54:46.971Z,98218.30
2017-10-25T02:55:18.923Z,98227.25
2017-10-25T02:55:50.754Z,98224.73
2017-10-25T02:56:22.514Z,98216.23
2017-10-25T02:56:54.166Z,98221.80
2017-10-25T02:57:25.817Z,98215.84
2017-10-25T02:57:57.461Z,98218.41
2017-10-25T02:58:29.101Z,98210.33
2017-10-25T02:59:00.746Z,98212.44
2017-10-25T02:59:32.570Z,98209.84
2017-10-25T03:00:04.258Z,98214.94
2017-10-25T03:00:35.909Z,98208.51
2017-10-25T03:01:07.558Z,98208.92
2017-10-25T03:01:39.210Z,98203.34
2017-10-25T03:02:10.882Z,98202.91
2017-10-25T03:02:42.742Z,98204.94
2017-10-25T03:03:14.395Z,98206.58
2017-10-25T03:03:46.040Z,98201.79
2017-10-25T03:04:17.681Z,98199.97
2017-10-25T03:04:49.325Z,98198.16
2017-10-25T03:05:20.966Z,98195.95
2017-10-25T03:05:52.613Z,98194.14
2017-10-25T03:06:24.254Z,98194.50
2017-10-25T03:06:55.898Z,98197.37
2017-10-25T03:07:27.537Z,98194.37
2017-10-25T03:07:59.249Z,98194.77
2017-10-25T03:08:31.142Z,98194.27
2017-10-25T03:09:02.797Z,98197.20
2017-10-25T03:09:34.441Z,98186.97
2017-10-25T03:10:06.125Z,98194.20
2017-10-25T03:10:37.774Z,98195.85
2017-10-25T03:11:09.421Z,98192.44
2017-10-25T03:11:41.066Z,98193.77
2017-10-25T03:12:12.711Z,98200.18
2017-10-25T03:12:44.362Z,98201.93
2017-10-25T03:13:16.229Z,98197.25
2017-10-25T03:13:47.879Z,98195.13
2017-10-25T03:14:19.564Z,98192.58
2017-10-25T03:14:51.399Z,98204.97
2017-10-25T03:15:23.158Z,98199.48
2017-10-25T03:15:54.810Z,98203.33
2017-10-25T03:16:26.457Z,98200.83
2017-10-25T03:16:58.105Z,98206.80
2017-10-25T03:17:29.754Z,98206.80
2017-10-25T03:18:01.397Z,98208.52
2017-10-25T03:18:33.086Z,98209.42
2017-10-25T03:19:04.958Z,98209.90
2017-10-25T03:19:36.908Z,98207.30
2017-10-25T03:20:08.556Z,98207.30
2017-10-25T03:20:40.407Z,98209.00
2017-10-25T03:21:12.053Z,98209.47
2017-10-25T03:21:43.786Z,98209.47
2017-10-25T03:22:15.624Z,98209.09
2017-10-25T03:22:47.373Z,98204.00
2017-10-25T03:23:19.025Z,98208.69
2017-10-25T03:23:50.669Z,98211.67
2017-10-25T03:24:22.317Z,98206.18
2017-10-25T03:24:53.962Z,98204.06
2017-10-25T03:25:25.612Z,98210.08
2017-10-25T03:25:57.532Z,98206.67
2017-10-25T03:26:29.185Z,98208.38
2017-10-25T03:27:00.870Z,98209.27
2017-10-25T03:27:32.517Z,98205.39
2017-10-25T03:28:04.158Z,98211.83
2017-10-25T03:28:35.802Z,98204.66
2017-10-25T03:29:07.454Z,98207.63
2017-10-25T03:29:39.230Z,98207.27
2017-10-25T03:30:10.976Z,98204.28
2017-10-25T03:30:42.633Z,98208.97
2017-10-25T03:31:14.325Z,98208.97
2017-10-25T03:31:45.973Z,98212.42
2017-10-25T03:32:17.823Z,98210.73
2017-10-25T03:32:49.490Z,98209.45
2017-10-25T03:33:21.440Z,98212.87
2017-10-25T03:33:53.090Z,98219.30
2017-10-25T03:34:24.733Z,98206.57
2017-10-25T03:34:56.381Z,98210.42
2017-10-25T03:35:28.025Z,98211.69
2017-10-25T03:35:59.682Z,98207.06
2017-10-25T03:36:31.560Z,98212.59
2017-10-25T03:37:03.237Z,98210.88
2017-10-25T03:37:34.881Z,98209.98
2017-10-25T03:38:06.706Z,98211.31
2017-10-25T03:38:38.474Z,98211.73
2017-10-25T03:39:10.125Z,98209.20
2017-10-25T03:39:41.962Z,98204.14
2017-10-25T03:40:14.014Z,98208.02
2017-10-25T03:40:45.666Z,98211.43
2017-10-25T03:41:17.317Z,98206.33
2017-10-25T03:41:48.997Z,98200.41
2017-10-25T03:42:20.843Z,98211.05
2017-10-25T03:42:52.530Z,98208.94
2017-10-25T03:43:24.188Z,98210.25
2017-10-25T03:43:56.122Z,98205.11
2017-10-25T03:44:27.968Z,98207.70
2017-10-25T03:44:59.712Z,98205.58
2017-10-25T03:45:31.659Z,98197.07
2017-10-25T03:46:03.317Z,98204.77
2017-10-25T03:46:35.157Z,98201.36
2017-10-25T03:47:06.936Z,98206.06
2017-10-25T03:47:38.607Z,98206.95
2017-10-25T03:48:10.402Z,98201.00
2017-10-25T03:48:42.090Z,98206.97
2017-10-25T03:49:13.741Z,98208.30
2017-10-25T03:49:45.412Z,98204.46
2017-10-25T03:50:17.361Z,98209.97
2017-10-25T03:50:49.009Z,98209.12
2017-10-25T03:51:20.669Z,98212.57
2017-10-25T03:51:52.361Z,98210.48
2017-10-25T03:52:24.234Z,98218.16
2017-10-25T03:52:56.112Z,98209.69
2017-10-25T03:53:27.764Z,98213.91
2017-10-25T03:53:59.417Z,98212.67
2017-10-25T03:54:31.066Z,98218.20
2017-10-25T03:55:02.709Z,98216.93
2017-10-25T03:55:34.393Z,98214.38
2017-10-25T03:56:06.278Z,98216.09
2017-10-25T03:56:37.925Z,98211.87
2017-10-25T03:57:09.853Z,98214.85
2017-10-25T03:57:41.838Z,98215.28
2017-10-25T03:58:13.525Z,98208.52
2017-10-25T03:58:45.781Z,98216.60
2017-10-25T03:59:17.730Z,98214.48
2017-10-25T03:59:49.389Z,98218.78
2017-10-25T04:00:21.041Z,98212.83
2017-10-25T04:00:52.683Z,98212.45
2017-10-25T04:01:24.325Z,98214.59
2017-10-25T04:01:56.161Z,98214.63
2017-10-25T04:02:27.805Z,98212.94
2017-10-25T04:02:59.450Z,98215.48
2017-10-25T04:03:31.093Z,98214.62
2017-10-25T04:04:02.741Z,98218.47
2017-10-25T04:04:34.389Z,98218.50
2017-10-25T04:05:06.029Z,98218.09
2017-10-25T04:05:37.678Z,98212.13
2017-10-25T04:06:09.582Z,98217.70
2017-10-25T04:06:41.331Z,98210.05
2017-10-25T04:07:13.282Z,98216.44
2017-10-25T04:07:44.970Z,98211.38
2017-10-25T04:08:16.871Z,98210.95
2017-10-25T04:08:48.522Z,98212.23
2017-10-25T04:09:20.169Z,98207.98
2017-10-25T04:09:51.814Z,98211.38
2017-10-25T04:10:23.457Z,98210.96
2017-10-25T04:10:55.098Z,98210.96
2017-10-25T04:11:26.741Z,98212.23
2017-10-25T04:11:58.425Z,98205.85
2017-10-25T04:12:30.066Z,98205.85
2017-10-25T04:13:01.928Z,98209.72
2017-10-25T04:13:33.597Z,98210.58
2017-10-25T04:14:05.426Z,98205.52
2017-10-25T04:14:37.349Z,98205.94
2017-10-25T04:15:08.997Z,98209.78
2017-10-25T04:15:40.650Z,98208.08
2017-10-25T04:16:12.456Z,98207.69
2017-10-25T04:16:44.141Z,98211.09
2017-10-25T04:17:16.013Z,98210.24
2017-10-25T04:17:47.853Z,98207.27
2017-10-25T04:18:19.541Z,98206.42
2017-10-25T04:18:51.243Z,98206.00
2017-10-25T04:19:23.109Z,98203.45
2017-10-25T04:19:54.761Z,98206.47
2017-10-25T04:20:26.402Z,98204.34
2017-10-25T04:20:58.051Z,98204.34
2017-10-25T04:21:29.761Z,98205.20
2017-10-25T04:22:01.627Z,98212.89
2017-10-25T04:22:33.273Z,98208.22
2017-10-25T04:23:04.921Z,98207.80
2017-10-25T04:23:36.569Z,98205.24
2017-10-25T04:24:08.226Z,98203.12
2017-10-25T04:24:39.873Z,98208.65
2017-10-25T04:25:11.795Z,98204.81
2017-10-25T04:25:43.441Z,98208.64
2017-10-25T04:26:15.081Z,98198.86
2017-10-25T04:26:46.725Z,98205.66
2017-10-25T04:27:18.365Z,98202.26
2017-10-25T04:27:50.010Z,98201.41
2017-10-25T04:28:21.917Z,98202.22
2017-10-25T04:28:53.597Z,98201.79
2017-10-25T04:29:25.237Z,98200.90
2017-10-25T04:29:57.170Z,98204.30
2017-10-25T04:30:28.900Z,98206.00
2017-10-25T04:31:00.590Z,98203.44
2017-10-25T04:31:32.494Z,98200.84
2017-10-25T04:32:04.373Z,98200.84
2017-10-25T04:32:36.022Z,98203.78
2017-10-25T04:33:07.709Z,98207.13
2017-10-25T04:33:39.368Z,98202.87
2017-10-25T04:34:11.318Z,98199.89
2017-10-25T04:34:43.271Z,98200.73
2017-10-25T04:35:14.918Z,98201.06
2017-10-25T04:35:46.601Z,98198.89
2017-10-25T04:36:18.250Z,98197.13
2017-10-25T04:36:50.142Z,98195.80
2017-10-25T04:37:21.983Z,98202.14
2017-10-25T04:37:53.737Z,98196.50
2017-10-25T04:38:25.381Z,98196.45
2017-10-25T04:38:57.025Z,98194.75
2017-10-25T04:39:28.670Z,98188.78
2017-10-25T04:40:00.351Z,98193.41
2017-10-25T04:40:32.001Z,98188.23
2017-10-25T04:41:03.892Z,98190.30
2017-10-25T04:41:35.542Z,98186.84
2017-10-25T04:42:07.186Z,98191.48
2017-10-25T04:42:38.830Z,98193.55
2017-10-25T04:43:10.477Z,98189.70
2017-10-25T04:43:42.162Z,98191.34
2017-10-25T04:44:13.812Z,98193.86
2017-10-25T04:44:45.692Z,98193.38
2017-10-25T04:45:17.534Z,98192.09
2017-10-25T04:45:49.283Z,98190.77
2017-10-25T04:46:21.105Z,98188.58
2017-10-25T04:46:52.875Z,98196.23
2017-10-25T04:47:24.637Z,98188.15
2017-10-25T04:47:56.285Z,98189.84
2017-10-25T04:48:27.933Z,98192.73
2017-10-25T04:48:59.573Z,98182.93
2017-10-25T04:49:31.219Z,98183.34
2017-10-25T04:50:02.869Z,98185.91
2017-10-25T04:50:34.675Z,98176.91
2017-10-25T04:51:06.326Z,98176.91
2017-10-25T04:51:37.970Z,98174.77
2017-10-25T04:52:09.621Z,98176.84
2017-10-25T04:52:41.271Z,98175.12
2017-10-25T04:53:12.918Z,98173.87
2017-10-25T04:53:44.562Z,98166.63
2017-10-25T04:54:16.212Z,98166.14
2017-10-25T04:54:47.990Z,98173.38
2017-10-25T04:55:19.759Z,98164.43
2017-10-25T04:55:51.441Z,98164.85
2017-10-25T04:56:23.327Z,98166.09
2017-10-25T04:56:55.190Z,98160.97
2017-10-25T04:57:26.941Z,98159.25
2017-10-25T04:57:58.824Z,98157.99
2017-10-25T04:58:30.466Z,98158.41
2017-10-25T04:59:02.109Z,98155.86
2017-10-25T04:59:33.753Z,98153.31
2017-10-25T05:00:05.394Z,98154.58
2017-10-25T05:00:37.033Z,98155.05
2017-10-25T05:01:08.766Z,98154.22
2017-10-25T05:01:40.405Z,98149.97
2017-10-25T05:02:12.045Z,98151.66
2017-10-25T05:02:43.742Z,98152.94
2017-10-25T05:03:15.616Z,98150.81
2017-10-25T05:03:47.265Z,98152.95
2017-10-25T05:04:18.907Z,98153.41
2017-10-25T05:04:50.550Z,98153.85
2017-10-25T05:05:22.198Z,98153.91
2017-10-25T05:05:53.841Z,98143.73
2017-10-25T05:06:25.485Z,98156.09
2017-10-25T05:06:57.133Z,98151.89
2017-10-25T05:07:28.782Z,98153.59
2017-10-25T05:08:00.700Z,98155.73
2017-10-25T05:08:32.566Z,98154.08
2017-10-25T05:09:04.213Z,98159.19
2017-10-25T05:09:36.249Z,98157.48
2017-10-25T05:10:07.893Z,98152.39
2017-10-25T05:10:39.545Z,98147.31
2017-10-25T05:11:11.196Z,98151.59
2017-10-25T05:11:42.845Z,98148.61
2017-10-25T05:12:14.512Z,98149.09
2017-10-25T05:12:46.359Z,98149.56
2017-10-25T05:13:18.102Z,98148.28
2017-10-25T05:13:49.749Z,98148.31
2017-10-25T05:14:21.398Z,98149.19
2017-10-25T05:14:53.275Z,98152.12
2017-10-25T05:15:24.921Z,98154.73
2017-10-25T05:15:56.573Z,98150.97
2017-10-25T05:16:28.225Z,98153.95
2017-10-25T05:16:59.865Z,98158.25
2017-10-25T05:17:31.511Z,98155.28
2017-10-25T05:18:03.153Z,98157.84
2017-10-25T05:18:34.830Z,98154.02
2017-10-25T05:19:06.711Z,98160.02
2017-10-25T05:19:38.665Z,98157.47
2017-10-25T05:20:10.612Z,98158.75
2017-10-25T05:20:42.266Z,98160.91
2017-10-25T05:21:13.909Z,98165.56
2017-10-25T05:21:45.554Z,98158.75
2017-10-25T05:22:17.202Z,98160.03
2017-10-25T05:22:48.846Z,98158.75
2017-10-25T05:23:20.489Z,98157.09
2017-10-25T05:23:52.165Z,98159.66
2017-10-25T05:24:23.809Z,98160.55
2017-10-25T05:24:55.699Z,98164.83
2017-10-25T05:25:27.544Z,98162.27
2017-10-25T05:25:59.296Z,98165.25
2017-10-25T05:26:30.945Z,98162.69
2017-10-25T05:27:02.591Z,98169.55
2017-10-25T05:27:34.242Z,98169.55
2017-10-25T05:28:05.889Z,98166.16
2017-10-25T05:28:37.565Z,98168.29
2017-10-25T05:29:09.407Z,98163.62
2017-10-25T05:29:41.091Z,98168.30
2017-10-25T05:30:12.928Z,98163.63
2017-10-25T05:30:44.687Z,98165.38
2017-10-25T05:31:16.338Z,98156.91
2017-10-25T05:31:47.985Z,98159.52
2017-10-25T05:32:20.693Z,98156.54
2017-10-25T05:32:52.478Z,98162.08
2017-10-25T05:33:24.433Z,98166.75
2017-10-25T05:33:56.117Z,98164.20
2017-10-25T05:34:28.018Z,98159.11
2017-10-25T05:34:59.968Z,98162.13
2017-10-25T05:35:31.887Z,98158.77
2017-10-25T05:36:03.558Z,98167.33
2017-10-25T05:36:35.383Z,98159.68
2017-10-25T05:37:07.151Z,98165.64
2017-10-25T05:37:38.801Z,98163.98
2017-10-25T05:38:10.449Z,98163.56
2017-10-25T05:38:42.097Z,98164.84
2017-10-25T05:39:13.745Z,98167.39
2017-10-25T05:39:45.719Z,98167.39
2017-10-25T05:40:17.378Z,98163.14
2017-10-25T05:40:49.222Z,98166.59
2017-10-25T05:41:20.896Z,98166.17
2017-10-25T05:41:52.549Z,98164.91
2017-10-25T05:42:24.197Z,98170.05
2017-10-25T05:42:55.841Z,98173.03
2017-10-25T05:43:27.487Z,98170.95
2017-10-25T05:43:59.137Z,98162.48
2017-10-25T05:44:30.777Z,98168.02
2017-10-25T05:45:02.426Z,98160.38
2017-10-25T05:45:34.077Z,98162.97
2017-10-25T05:46:05.874Z,98163.41
2017-10-25T05:46:37.625Z,98167.23
2017-10-25T05:47:09.274Z,98168.52
2017-10-25T05:47:40.918Z,98175.36
2017-10-25T05:48:12.562Z,98171.52
2017-10-25T05:48:44.205Z,98174.50
2017-10-25T05:49:15.852Z,98175.79
2017-10-25T05:49:47.506Z,98175.79
2017-10-25T05:50:19.149Z,98178.34
2017-10-25T05:50:50.797Z,98180.48
2017-10-25T05:51:22.438Z,98180.52
2017-10-25T05:51:54.081Z,98181.37
2017-10-25T05:52:25.725Z,98183.49
2017-10-25T05:52:57.365Z,98181.37
2017-10-25T05:53:29.239Z,98185.63
2017-10-25T05:54:00.929Z,98186.05
2017-10-25T05:54:32.581Z,98186.91
2017-10-25T05:55:04.241Z,98192.86
2017-10-25T05:55:36.044Z,98187.80
2017-10-25T05:56:07.794Z,98194.19
2017-10-25T05:56:39.463Z,98196.31
2017-10-25T05:57:11.134Z,98189.97
2017-10-25T05:57:42.777Z,98193.81
2017-10-25T05:58:14.426Z,98191.68
2017-10-25T05:58:46.311Z,98193.81
2017-10-25T05:59:18.193Z,98195.09
2017-10-25T05:59:49.902Z,98198.48
2017-10-25T06:00:22.105Z,98191.69
2017-10-25T06:00:53.755Z,98196.36
2017-10-25T06:01:25.406Z,98195.52
2017-10-25T06:01:57.087Z,98195.97
2017-10-25T06:02:28.741Z,98197.22
2017-10-25T06:03:00.386Z,98198.48
2017-10-25T06:03:32.040Z,98193.38
2017-10-25T06:04:03.688Z,98194.22
2017-10-25T06:04:35.600Z,98199.33
2017-10-25T06:05:07.250Z,98195.50
2017-10-25T06:05:39.124Z,98195.88
2017-10-25T06:06:10.769Z,98193.77
2017-10-25T06:06:42.421Z,98195.41
2017-10-25T06:07:14.066Z,98195.88
2017-10-25T06:07:45.719Z,98200.09
2017-10-25T06:08:17.399Z,98197.96
2017-10-25T06:08:49.350Z,98200.52
2017-10-25T06:09:21.002Z,98205.62
2017-10-25T06:09:52.653Z,98198.81
2017-10-25T06:10:24.522Z,98200.94
2017-10-25T06:10:56.533Z,98197.53
2017-10-25T06:11:28.181Z,98198.34
2017-10-25T06:12:00.124Z,98199.61
2017-10-25T06:12:32.004Z,98199.61